createdAt,value
2022-12-27T00:00:58.947Z,25.88
2022-12-27T00:01:58.939Z,25.90
2022-12-27T00:02:58.922Z,25.85
2022-12-27T00:03:58.897Z,25.85
2022-12-27T00:04:58.887Z,25.87
2022-12-27T00:05:58.919Z,25.90
2022-12-27T00:06:58.892Z,25.87
2022-12-27T00:07:58.900Z,25.92
2022-12-27T00:08:58.884Z,25.92
2022-12-27T00:09:58.891Z,25.83
2022-12-27T00:10:58.879Z,25.87
2022-12-27T00:12:00.128Z,25.83
2022-12-27T00:12:58.881Z,25.88
2022-12-27T00:13:58.886Z,25.88
2022-12-27T00:14:58.877Z,25.92
2022-12-27T00:15:58.921Z,25.88
2022-12-27T00:16:58.881Z,25.88
2022-12-27T00:17:58.884Z,25.85
2022-12-27T00:18:58.872Z,25.87
2022-12-27T00:19:58.895Z,25.88
2022-12-27T00:20:58.883Z,25.90
2022-12-27T00:21:58.901Z,25.90
2022-12-27T00:22:58.882Z,25.88
2022-12-27T00:23:58.877Z,25.92
2022-12-27T00:24:58.870Z,25.87
2022-12-27T00:25:58.879Z,25.83
2022-12-27T00:26:58.868Z,25.87
2022-12-27T00:27:58.873Z,25.90
2022-12-27T00:28:58.872Z,25.91
2022-12-27T00:29:58.875Z,25.90
2022-12-27T00:30:58.875Z,25.90
2022-12-27T00:31:58.910Z,25.88
2022-12-27T00:32:58.862Z,25.92
2022-12-27T00:33:58.868Z,25.91
2022-12-27T00:34:58.858Z,25.91
2022-12-27T00:35:58.866Z,25.94
2022-12-27T00:36:58.861Z,25.88
2022-12-27T00:37:58.888Z,25.91
2022-12-27T00:38:58.855Z,25.91
2022-12-27T00:39:58.862Z,25.90
2022-12-27T00:40:58.855Z,25.88
2022-12-27T00:41:58.869Z,25.88
2022-12-27T00:42:58.852Z,25.83
2022-12-27T00:43:58.869Z,25.91
2022-12-27T00:44:58.851Z,25.87
2022-12-27T00:45:58.925Z,25.92
2022-12-27T00:46:58.854Z,25.87
2022-12-27T00:47:58.856Z,25.92
2022-12-27T00:48:58.845Z,25.91
2022-12-27T00:49:58.854Z,25.83
2022-12-27T00:50:58.847Z,25.90
2022-12-27T00:51:58.852Z,25.87
2022-12-27T00:52:58.845Z,25.90
2022-12-27T00:53:58.878Z,25.90
2022-12-27T00:54:58.843Z,25.83
2022-12-27T00:55:58.869Z,25.92
2022-12-27T00:56:58.842Z,25.87
2022-12-27T00:57:58.849Z,25.94
2022-12-27T00:58:58.860Z,25.90
2022-12-27T00:59:58.849Z,25.88
2022-12-27T01:00:58.868Z,25.90
2022-12-27T01:01:58.928Z,25.90
2022-12-27T01:02:58.845Z,25.87
2022-12-27T01:03:58.928Z,25.90
2022-12-27T01:04:58.838Z,25.92
2022-12-27T01:05:58.847Z,25.92
2022-12-27T01:06:58.842Z,25.85
2022-12-27T01:07:58.853Z,25.90
2022-12-27T01:08:58.839Z,25.87
2022-12-27T01:09:58.868Z,25.91
2022-12-27T01:10:58.832Z,25.85
2022-12-27T01:11:58.837Z,25.88
2022-12-27T01:12:58.831Z,25.90
2022-12-27T01:13:58.846Z,25.90
2022-12-27T01:14:58.828Z,25.88
2022-12-27T01:15:58.836Z,25.85
2022-12-27T01:16:58.869Z,25.87
2022-12-27T01:17:58.849Z,25.90
2022-12-27T01:18:58.832Z,25.90
2022-12-27T01:19:58.837Z,25.85
2022-12-27T01:20:58.829Z,25.85
2022-12-27T01:21:58.838Z,25.87
2022-12-27T01:22:58.828Z,25.88
2022-12-27T01:23:58.836Z,25.92
2022-12-27T01:24:58.822Z,25.88
2022-12-27T01:25:58.849Z,25.91
2022-12-27T01:26:58.818Z,25.90
2022-12-27T01:27:58.826Z,25.85
2022-12-27T01:28:58.820Z,25.83
2022-12-27T01:29:58.834Z,25.90
2022-12-27T01:30:58.821Z,25.90
2022-12-27T01:31:58.847Z,25.91
2022-12-27T01:32:58.819Z,25.88
2022-12-27T01:33:58.850Z,25.87
2022-12-27T01:34:58.812Z,25.90
2022-12-27T01:35:58.823Z,25.90
2022-12-27T01:36:58.810Z,25.87
2022-12-27T01:37:58.820Z,25.90
2022-12-27T01:38:58.825Z,25.94
2022-12-27T01:39:58.816Z,25.92
2022-12-27T01:40:58.808Z,25.90
2022-12-27T01:41:58.841Z,25.90
2022-12-27T01:42:58.806Z,25.85
2022-12-27T01:43:58.811Z,25.88
2022-12-27T01:44:58.804Z,25.90
2022-12-27T01:45:58.896Z,25.85
2022-12-27T01:46:58.801Z,25.88
2022-12-27T01:47:58.819Z,25.85
2022-12-27T01:48:58.799Z,25.90
2022-12-27T01:49:58.827Z,25.87
2022-12-27T01:50:58.797Z,25.91
2022-12-27T01:51:58.812Z,25.87
2022-12-27T01:52:58.795Z,25.83
2022-12-27T01:53:58.803Z,25.90
2022-12-27T01:54:58.801Z,25.87
2022-12-27T01:55:58.794Z,25.83
2022-12-27T01:56:58.803Z,25.88
2022-12-27T01:57:58.825Z,25.88
2022-12-27T01:58:58.800Z,25.91
2022-12-27T01:59:58.792Z,25.85
2022-12-27T02:00:58.911Z,25.85
2022-12-27T02:01:59.190Z,25.90
2022-12-27T02:02:58.855Z,25.85
2022-12-27T02:03:58.795Z,25.88
2022-12-27T02:04:58.819Z,25.83
2022-12-27T02:05:58.788Z,25.85
2022-12-27T02:06:58.793Z,25.90
2022-12-27T02:07:58.784Z,25.83
2022-12-27T02:08:58.792Z,25.90
2022-12-27T02:09:58.782Z,25.90
2022-12-27T02:10:58.809Z,25.94
2022-12-27T02:11:58.779Z,25.83
2022-12-27T02:12:58.786Z,25.85
2022-12-27T02:13:58.800Z,25.88
2022-12-27T02:14:58.790Z,25.85
2022-12-27T02:15:58.776Z,25.85
2022-12-27T02:16:58.861Z,25.90
2022-12-27T02:17:58.774Z,25.85
2022-12-27T02:18:58.785Z,25.85
2022-12-27T02:19:58.771Z,25.87
2022-12-27T02:20:58.796Z,25.85
2022-12-27T02:21:58.771Z,25.88
2022-12-27T02:22:58.777Z,25.83
2022-12-27T02:23:58.774Z,25.91
2022-12-27T02:24:58.797Z,25.85
2022-12-27T02:25:58.789Z,25.90
2022-12-27T02:26:58.787Z,25.85
2022-12-27T02:27:58.768Z,25.90
2022-12-27T02:28:58.781Z,25.85
2022-12-27T02:29:58.789Z,25.88
2022-12-27T02:30:58.827Z,25.90
2022-12-27T02:31:58.767Z,25.85
2022-12-27T02:32:58.771Z,25.83
2022-12-27T02:33:58.771Z,25.85
2022-12-27T02:34:58.768Z,25.85
2022-12-27T02:35:58.764Z,25.85
2022-12-27T02:36:58.771Z,25.90
2022-12-27T02:37:58.771Z,25.85
2022-12-27T02:38:58.770Z,25.85
2022-12-27T02:39:58.757Z,25.92
2022-12-27T02:40:58.769Z,25.85
2022-12-27T02:41:58.756Z,25.83
2022-12-27T02:42:58.772Z,25.88
2022-12-27T02:43:58.756Z,25.85
2022-12-27T02:44:58.763Z,25.82
2022-12-27T02:45:58.824Z,25.85
2022-12-27T02:46:58.758Z,25.90
2022-12-27T02:47:58.751Z,25.85
2022-12-27T02:48:58.757Z,25.88
2022-12-27T02:49:58.750Z,25.87
2022-12-27T02:50:58.764Z,25.85
2022-12-27T02:51:58.751Z,25.82
2022-12-27T02:52:58.758Z,25.87
2022-12-27T02:53:58.750Z,25.88
2022-12-27T02:54:58.763Z,25.87
2022-12-27T02:55:58.743Z,25.87
2022-12-27T02:56:58.751Z,25.83
2022-12-27T02:57:58.748Z,25.80
2022-12-27T02:58:58.756Z,25.85
2022-12-27T02:59:58.739Z,25.91
2022-12-27T03:00:58.796Z,25.88
2022-12-27T03:01:58.848Z,25.87
2022-12-27T03:02:58.780Z,25.85
2022-12-27T03:03:58.738Z,25.85
2022-12-27T03:04:58.741Z,25.85
2022-12-27T03:05:58.734Z,25.87
2022-12-27T03:06:58.739Z,25.90
2022-12-27T03:07:58.735Z,25.87
2022-12-27T03:08:58.741Z,25.88
2022-12-27T03:09:58.733Z,25.85
2022-12-27T03:10:58.742Z,25.85
2022-12-27T03:11:58.747Z,25.85
2022-12-27T03:12:58.741Z,25.88
2022-12-27T03:13:58.729Z,25.87
2022-12-27T03:14:58.938Z,25.85
2022-12-27T03:15:58.803Z,25.88
2022-12-27T03:16:58.733Z,25.90
2022-12-27T03:17:58.748Z,25.88
2022-12-27T03:18:58.730Z,25.82
2022-12-27T03:19:58.723Z,25.88
2022-12-27T03:20:58.731Z,25.90
2022-12-27T03:21:58.722Z,25.85
2022-12-27T03:22:58.727Z,25.88
2022-12-27T03:23:58.728Z,25.85
2022-12-27T03:24:58.883Z,25.85
2022-12-27T03:25:58.717Z,25.77
2022-12-27T03:26:58.724Z,25.82
2022-12-27T03:27:58.721Z,25.87
2022-12-27T03:28:58.722Z,25.85
2022-12-27T03:29:58.714Z,25.85
2022-12-27T03:30:58.794Z,25.82
2022-12-27T03:31:58.712Z,25.83
2022-12-27T03:32:58.719Z,25.87
2022-12-27T03:33:58.732Z,25.85
2022-12-27T03:34:58.719Z,25.85
2022-12-27T03:35:58.711Z,25.80
2022-12-27T03:36:58.713Z,25.83
2022-12-27T03:37:58.711Z,25.83
2022-12-27T03:38:58.716Z,25.82
2022-12-27T03:39:58.704Z,25.77
2022-12-27T03:40:58.711Z,25.88
2022-12-27T03:41:58.711Z,25.80
2022-12-27T03:42:58.733Z,25.88
2022-12-27T03:43:58.700Z,25.79
2022-12-27T03:44:58.706Z,25.87
2022-12-27T03:45:58.767Z,25.87
2022-12-27T03:46:58.712Z,25.87
2022-12-27T03:47:58.707Z,25.82
2022-12-27T03:48:58.708Z,25.83
2022-12-27T03:49:58.718Z,25.80
2022-12-27T03:50:58.766Z,25.83
2022-12-27T03:51:58.704Z,25.87
2022-12-27T03:52:58.703Z,25.87
2022-12-27T03:53:58.708Z,25.87
2022-12-27T03:54:58.705Z,25.88
2022-12-27T03:55:58.692Z,25.80
2022-12-27T03:56:58.697Z,25.90
2022-12-27T03:57:58.693Z,25.82
2022-12-27T03:58:58.696Z,25.83
2022-12-27T03:59:58.689Z,25.90
2022-12-27T04:00:58.694Z,25.87
2022-12-27T04:01:58.796Z,25.85
2022-12-27T04:02:58.818Z,25.88
2022-12-27T04:03:58.685Z,25.77
2022-12-27T04:04:58.699Z,25.87
2022-12-27T04:05:58.704Z,25.83
2022-12-27T04:06:58.696Z,25.85
2022-12-27T04:07:58.681Z,25.77
2022-12-27T04:08:58.686Z,25.83
2022-12-27T04:09:58.677Z,25.87
2022-12-27T04:10:58.693Z,25.79
2022-12-27T04:11:58.677Z,25.82
2022-12-27T04:12:58.691Z,25.83
2022-12-27T04:13:58.677Z,25.85
2022-12-27T04:14:58.679Z,25.77
2022-12-27T04:15:58.705Z,25.83
2022-12-27T04:16:58.686Z,25.83
2022-12-27T04:17:58.671Z,25.80
2022-12-27T04:18:58.681Z,25.85
2022-12-27T04:19:58.669Z,25.76
2022-12-27T04:20:58.677Z,25.87
2022-12-27T04:21:58.690Z,25.88
2022-12-27T04:22:58.676Z,25.79
2022-12-27T04:23:58.679Z,25.88
2022-12-27T04:24:58.674Z,25.87
2022-12-27T04:25:58.675Z,25.87
2022-12-27T04:26:58.673Z,25.82
2022-12-27T04:27:58.667Z,25.87
2022-12-27T04:28:58.670Z,25.90
2022-12-27T04:29:58.662Z,25.88
2022-12-27T04:30:58.719Z,25.83
2022-12-27T04:31:58.661Z,25.83
2022-12-27T04:32:58.676Z,25.80
2022-12-27T04:33:58.661Z,25.87
2022-12-27T04:34:58.673Z,25.90
2022-12-27T04:36:04.337Z,25.85
2022-12-27T04:36:58.664Z,25.82
2022-12-27T04:37:58.686Z,25.83
2022-12-27T04:38:58.662Z,25.79
2022-12-27T04:39:58.655Z,25.88
2022-12-27T04:40:58.669Z,25.83
2022-12-27T04:41:58.651Z,25.83
2022-12-27T04:42:58.658Z,25.91
2022-12-27T04:43:58.653Z,25.79
2022-12-27T04:44:58.658Z,25.87
2022-12-27T04:45:58.649Z,25.83
2022-12-27T04:46:58.663Z,25.79
2022-12-27T04:47:58.651Z,25.85
2022-12-27T04:48:58.668Z,25.88
2022-12-27T04:49:58.645Z,25.83
2022-12-27T04:50:58.650Z,25.77
2022-12-27T04:51:58.642Z,25.87
2022-12-27T04:52:58.650Z,25.83
2022-12-27T04:53:58.672Z,25.83
2022-12-27T04:54:58.669Z,25.77
2022-12-27T04:55:58.639Z,25.88
2022-12-27T04:56:58.645Z,25.77
2022-12-27T04:57:58.639Z,25.88
2022-12-27T04:58:58.665Z,25.87
2022-12-27T04:59:58.636Z,25.87
2022-12-27T05:00:58.640Z,25.92
2022-12-27T05:01:58.699Z,25.83
2022-12-27T05:02:58.707Z,25.87
2022-12-27T05:03:58.638Z,25.82
2022-12-27T05:04:58.636Z,25.91
2022-12-27T05:05:58.636Z,25.82
2022-12-27T05:06:58.636Z,25.79
2022-12-27T05:07:58.629Z,25.87
2022-12-27T05:08:58.640Z,25.83
2022-12-27T05:09:58.646Z,25.82
2022-12-27T05:10:58.630Z,25.91
2022-12-27T05:11:58.624Z,25.87
2022-12-27T05:12:58.633Z,25.85
2022-12-27T05:13:58.629Z,25.87
2022-12-27T05:14:58.629Z,25.77
2022-12-27T05:15:58.684Z,25.83
2022-12-27T05:16:58.626Z,25.90
2022-12-27T05:17:58.620Z,25.85
2022-12-27T05:18:58.665Z,25.77
2022-12-27T05:19:58.614Z,25.87
2022-12-27T05:20:58.622Z,25.87
2022-12-27T05:21:58.614Z,25.88
2022-12-27T05:22:58.619Z,25.85
2022-12-27T05:24:04.934Z,25.90
2022-12-27T05:24:58.617Z,25.82
2022-12-27T05:25:58.642Z,25.88
2022-12-27T05:26:58.645Z,25.87
2022-12-27T05:27:58.608Z,25.88
2022-12-27T05:28:58.620Z,25.80
2022-12-27T05:29:58.606Z,25.80
2022-12-27T05:30:58.669Z,25.90
2022-12-27T05:31:58.609Z,25.83
2022-12-27T05:32:58.613Z,25.80
2022-12-27T05:33:58.604Z,25.85
2022-12-27T05:34:58.612Z,25.87
2022-12-27T05:35:58.603Z,25.88
2022-12-27T05:36:58.609Z,25.87
2022-12-27T05:37:58.601Z,25.88
2022-12-27T05:38:58.631Z,25.85
2022-12-27T05:39:58.605Z,25.87
2022-12-27T05:40:58.608Z,25.85
2022-12-27T05:41:58.625Z,25.88
2022-12-27T05:42:58.603Z,25.85
2022-12-27T05:44:03.288Z,25.88
2022-12-27T05:44:58.602Z,25.92
2022-12-27T05:45:58.596Z,25.87
2022-12-27T05:46:58.628Z,25.87
2022-12-27T05:47:58.598Z,25.77
2022-12-27T05:48:58.599Z,25.87
2022-12-27T05:49:58.600Z,25.82
2022-12-27T05:50:58.602Z,25.87
2022-12-27T05:51:58.602Z,25.85
2022-12-27T05:52:58.594Z,25.82
2022-12-27T05:53:58.586Z,25.87
2022-12-27T05:54:58.595Z,25.87
2022-12-27T05:55:58.585Z,25.83
2022-12-27T05:56:58.600Z,25.77
2022-12-27T05:57:58.608Z,25.80
2022-12-27T05:58:58.594Z,25.87
2022-12-27T05:59:58.580Z,25.83
2022-12-27T06:00:58.590Z,25.82
2022-12-27T06:01:58.768Z,25.90
2022-12-27T06:02:58.716Z,25.90
2022-12-27T06:03:58.578Z,25.79
2022-12-27T06:04:58.591Z,25.82
2022-12-27T06:05:58.576Z,25.79
2022-12-27T06:06:58.582Z,25.82
2022-12-27T06:07:58.573Z,25.82
2022-12-27T06:08:58.581Z,25.77
2022-12-27T06:09:58.570Z,25.76
2022-12-27T06:10:58.570Z,25.79
2022-12-27T06:11:58.583Z,25.73
2022-12-27T06:12:58.598Z,25.76
2022-12-27T06:13:58.602Z,25.79
2022-12-27T06:14:58.566Z,25.76
2022-12-27T06:15:58.574Z,25.75
2022-12-27T06:16:58.565Z,25.73
2022-12-27T06:17:58.572Z,25.75
2022-12-27T06:18:58.566Z,25.75
2022-12-27T06:19:58.570Z,25.73
2022-12-27T06:20:58.561Z,25.76
2022-12-27T06:21:58.569Z,25.77
2022-12-27T06:22:58.560Z,25.75
2022-12-27T06:23:58.565Z,25.79
2022-12-27T06:24:58.558Z,25.76
2022-12-27T06:25:58.562Z,25.76
2022-12-27T06:26:58.554Z,25.77
2022-12-27T06:27:58.560Z,25.67
2022-12-27T06:28:58.566Z,25.79
2022-12-27T06:29:58.670Z,25.72
2022-12-27T06:30:58.556Z,25.67
2022-12-27T06:31:58.588Z,25.73
2022-12-27T06:32:58.556Z,25.67
2022-12-27T06:33:58.575Z,25.67
2022-12-27T06:34:58.546Z,25.67
2022-12-27T06:35:58.555Z,25.69
2022-12-27T06:36:58.548Z,25.67
2022-12-27T06:37:58.552Z,25.67
2022-12-27T06:38:58.540Z,25.69
2022-12-27T06:39:58.549Z,25.70
2022-12-27T06:40:58.550Z,25.73
2022-12-27T06:41:58.547Z,25.64
2022-12-27T06:42:58.542Z,25.70
2022-12-27T06:43:58.574Z,25.65
2022-12-27T06:44:58.544Z,25.76
2022-12-27T06:45:58.646Z,25.77
2022-12-27T06:46:58.537Z,25.69
2022-12-27T06:47:58.545Z,25.69
2022-12-27T06:48:58.535Z,25.70
2022-12-27T06:49:58.542Z,25.69
2022-12-27T06:50:58.533Z,25.76
2022-12-27T06:51:59.951Z,25.73
2022-12-27T06:52:58.533Z,25.72
2022-12-27T06:53:58.538Z,25.73
2022-12-27T06:54:58.530Z,25.73
2022-12-27T06:55:58.536Z,25.76
2022-12-27T06:56:58.528Z,25.70
2022-12-27T06:57:58.538Z,25.76
2022-12-27T06:58:58.530Z,25.72
2022-12-27T06:59:58.530Z,25.76
2022-12-27T07:00:58.593Z,25.72
2022-12-27T07:01:58.731Z,25.79
2022-12-27T07:02:58.588Z,25.72
2022-12-27T07:03:58.536Z,25.76
2022-12-27T07:04:58.520Z,25.76
2022-12-27T07:05:58.527Z,25.77
2022-12-27T07:06:58.519Z,25.75
2022-12-27T07:07:58.548Z,25.82
2022-12-27T07:08:58.528Z,25.75
2022-12-27T07:09:58.522Z,25.77
2022-12-27T07:10:58.515Z,25.75
2022-12-27T07:11:58.520Z,25.75
2022-12-27T07:12:58.514Z,25.75
2022-12-27T07:13:58.524Z,25.73
2022-12-27T07:14:58.516Z,25.77
2022-12-27T07:15:58.517Z,25.79
2022-12-27T07:16:58.680Z,25.76
2022-12-27T07:17:58.543Z,25.79
2022-12-27T07:18:58.513Z,25.73
2022-12-27T07:19:58.527Z,25.80
2022-12-27T07:20:58.509Z,25.75
2022-12-27T07:21:58.513Z,25.79
2022-12-27T07:22:58.507Z,25.76
2022-12-27T07:23:58.513Z,25.73
2022-12-27T07:24:58.503Z,25.76
2022-12-27T07:25:58.509Z,25.75
2022-12-27T07:26:58.510Z,25.77
2022-12-27T07:27:58.506Z,25.73
2022-12-27T07:28:58.499Z,25.72
2022-12-27T07:29:58.505Z,25.80
2022-12-27T07:30:58.496Z,25.75
2022-12-27T07:31:58.546Z,25.79
2022-12-27T07:32:58.498Z,25.75
2022-12-27T07:33:58.533Z,25.75
2022-12-27T07:34:58.497Z,25.79
2022-12-27T07:35:58.498Z,25.75
2022-12-27T07:36:58.492Z,25.80
2022-12-27T07:37:58.499Z,25.79
2022-12-27T07:38:58.488Z,25.75
2022-12-27T07:39:58.494Z,25.75
2022-12-27T07:40:58.487Z,25.77
2022-12-27T07:42:01.953Z,25.80
2022-12-27T07:42:58.492Z,25.76
2022-12-27T07:43:58.493Z,25.80
2022-12-27T07:44:58.481Z,25.77
2022-12-27T07:45:58.512Z,25.75
2022-12-27T07:46:58.487Z,25.73
2022-12-27T07:47:58.485Z,25.76
2022-12-27T07:48:58.499Z,25.79
2022-12-27T07:49:58.506Z,25.79
2022-12-27T07:50:58.475Z,25.76
2022-12-27T07:51:58.490Z,25.75
2022-12-27T07:52:58.472Z,25.79
2022-12-27T07:53:58.492Z,25.75
2022-12-27T07:54:58.476Z,25.79
2022-12-27T07:55:58.479Z,25.80
2022-12-27T07:56:58.488Z,25.75
2022-12-27T07:57:58.475Z,25.75
2022-12-27T07:58:58.492Z,25.76
2022-12-27T07:59:58.481Z,25.76
2022-12-27T08:00:58.490Z,25.77
2022-12-27T08:01:58.585Z,25.75
2022-12-27T08:02:58.490Z,25.77
2022-12-27T08:03:58.479Z,25.77
2022-12-27T08:04:58.464Z,25.77
2022-12-27T08:05:58.491Z,25.79
2022-12-27T08:06:58.462Z,25.76
2022-12-27T08:07:58.470Z,25.77
2022-12-27T08:08:58.463Z,25.76
2022-12-27T08:09:58.468Z,25.75
2022-12-27T08:11:05.144Z,25.77
2022-12-27T08:11:58.469Z,25.80
2022-12-27T08:12:58.456Z,25.76
2022-12-27T08:13:58.460Z,25.79
2022-12-27T08:14:58.453Z,25.79
2022-12-27T08:15:58.465Z,25.80
2022-12-27T08:16:58.489Z,25.82
2022-12-27T08:17:58.458Z,25.79
2022-12-27T08:19:02.019Z,25.87
2022-12-27T08:19:58.460Z,25.75
2022-12-27T08:20:58.448Z,25.77
2022-12-27T08:21:58.595Z,25.75
2022-12-27T08:22:58.454Z,25.80
2022-12-27T08:23:58.454Z,25.80
2022-12-27T08:24:58.452Z,25.79
2022-12-27T08:25:58.452Z,25.80
2022-12-27T08:26:58.442Z,25.80
2022-12-27T08:27:58.451Z,25.77
2022-12-27T08:28:58.447Z,25.73
2022-12-27T08:29:58.447Z,25.80
2022-12-27T08:30:58.456Z,25.82
2022-12-27T08:31:58.444Z,25.77
2022-12-27T08:32:58.444Z,25.79
2022-12-27T08:33:58.995Z,25.79
2022-12-27T08:35:12.078Z,25.76
2022-12-27T08:35:58.447Z,25.79
2022-12-27T08:36:58.434Z,25.80
2022-12-27T08:37:58.471Z,25.75
2022-12-27T08:38:58.443Z,25.79
2022-12-27T08:40:02.685Z,25.82
2022-12-27T08:40:58.441Z,25.79
2022-12-27T08:41:58.450Z,25.83
2022-12-27T08:42:58.434Z,25.80
2022-12-27T08:43:58.438Z,25.82
2022-12-27T08:44:58.431Z,25.80
2022-12-27T08:45:58.454Z,25.75
2022-12-27T08:46:58.426Z,25.79
2022-12-27T08:47:58.476Z,25.80
2022-12-27T08:48:58.425Z,25.79
2022-12-27T08:49:58.430Z,25.87
2022-12-27T08:50:58.420Z,25.79
2022-12-27T08:51:58.444Z,25.80
2022-12-27T08:52:58.418Z,25.77
2022-12-27T08:53:58.485Z,25.79
2022-12-27T08:54:58.419Z,25.79
2022-12-27T08:55:58.424Z,25.80
2022-12-27T08:56:58.420Z,25.76
2022-12-27T08:57:58.431Z,25.72
2022-12-27T08:58:58.426Z,25.82
2022-12-27T08:59:58.422Z,25.80
2022-12-27T09:00:58.506Z,25.79
2022-12-27T09:01:58.515Z,25.76
2022-12-27T09:02:58.514Z,25.79
2022-12-27T09:03:58.414Z,25.75
2022-12-27T09:04:58.410Z,25.83
2022-12-27T09:05:58.425Z,25.82
2022-12-27T09:06:58.403Z,25.76
2022-12-27T09:07:58.415Z,25.79
2022-12-27T09:08:58.413Z,25.80
2022-12-27T09:09:58.436Z,25.79
2022-12-27T09:10:58.398Z,25.79
2022-12-27T09:11:58.410Z,25.82
2022-12-27T09:12:58.400Z,25.80
2022-12-27T09:13:58.417Z,25.82
2022-12-27T09:14:58.396Z,25.82
2022-12-27T09:15:58.444Z,25.83
2022-12-27T09:16:58.396Z,25.82
2022-12-27T09:17:58.435Z,25.76
2022-12-27T09:18:58.416Z,25.79
2022-12-27T09:19:58.399Z,25.77
2022-12-27T09:20:58.391Z,25.75
2022-12-27T09:21:58.408Z,25.83
2022-12-27T09:22:58.389Z,25.82
2022-12-27T09:23:58.401Z,25.79
2022-12-27T09:24:58.426Z,25.82
2022-12-27T09:25:58.492Z,25.77
2022-12-27T09:26:58.385Z,25.77
2022-12-27T09:27:58.403Z,25.82
2022-12-27T09:28:58.416Z,25.77
2022-12-27T09:29:58.395Z,25.80
2022-12-27T09:30:58.455Z,25.79
2022-12-27T09:31:58.388Z,25.76
2022-12-27T09:32:58.391Z,25.79
2022-12-27T09:33:58.391Z,25.80
2022-12-27T09:34:58.381Z,25.85
2022-12-27T09:35:58.387Z,25.83
2022-12-27T09:36:58.378Z,25.83
2022-12-27T09:37:58.388Z,25.75
2022-12-27T09:38:58.378Z,25.83
2022-12-27T09:39:58.409Z,25.83
2022-12-27T09:40:58.375Z,25.87
2022-12-27T09:43:12.520Z,25.75
2022-12-27T09:43:58.379Z,25.83
2022-12-27T09:44:58.368Z,25.80
2022-12-27T09:45:58.439Z,25.79
2022-12-27T09:46:58.367Z,25.82
2022-12-27T09:47:58.379Z,25.83
2022-12-27T09:48:58.367Z,25.83
2022-12-27T09:49:58.378Z,25.79
2022-12-27T09:50:58.368Z,25.83
2022-12-27T09:51:58.385Z,25.72
2022-12-27T09:52:58.369Z,25.82
2022-12-27T09:53:58.371Z,25.77
2022-12-27T09:55:04.435Z,25.83
2022-12-27T09:55:58.366Z,25.85
2022-12-27T09:57:22.334Z,25.79
2022-12-27T09:57:58.399Z,25.80
2022-12-27T09:58:58.358Z,25.79
2022-12-27T09:59:58.364Z,25.79
2022-12-27T10:00:58.358Z,25.85
2022-12-27T10:01:58.493Z,25.77
2022-12-27T10:02:58.358Z,25.87
2022-12-27T10:03:58.382Z,25.90
2022-12-27T10:05:19.762Z,25.88
2022-12-27T10:05:58.404Z,25.80
2022-12-27T10:06:58.349Z,25.83
2022-12-27T10:07:58.358Z,25.77
2022-12-27T10:08:58.352Z,25.79
2022-12-27T10:09:58.355Z,25.79
2022-12-27T10:10:58.355Z,25.77
2022-12-27T10:11:58.351Z,25.77
2022-12-27T10:12:58.346Z,25.73
2022-12-27T10:13:58.383Z,25.83
2022-12-27T10:14:58.352Z,25.85
2022-12-27T10:15:58.385Z,25.83
2022-12-27T10:16:58.344Z,25.79
2022-12-27T10:17:58.354Z,25.82
2022-12-27T10:18:58.348Z,25.85
2022-12-27T10:19:58.345Z,25.80
2022-12-27T10:20:58.336Z,25.88
2022-12-27T10:21:58.342Z,25.77
2022-12-27T10:23:04.333Z,25.80
2022-12-27T10:23:58.346Z,25.79
2022-12-27T10:24:58.334Z,25.82
2022-12-27T10:25:58.341Z,25.82
2022-12-27T10:26:58.344Z,25.79
2022-12-27T10:27:58.330Z,25.79
2022-12-27T10:28:58.336Z,25.80
2022-12-27T10:29:58.366Z,25.83
2022-12-27T10:30:58.364Z,25.77
2022-12-27T10:31:58.327Z,25.80
2022-12-27T10:32:58.336Z,25.82
2022-12-27T10:33:58.345Z,25.76
2022-12-27T10:34:58.378Z,25.90
2022-12-27T10:35:58.332Z,25.80
2022-12-27T10:36:58.330Z,25.76
2022-12-27T10:37:58.323Z,25.83
2022-12-27T10:38:58.347Z,25.83
2022-12-27T10:39:58.317Z,25.79
2022-12-27T10:40:58.324Z,25.79
2022-12-27T10:41:58.316Z,25.80
2022-12-27T10:42:58.322Z,25.82
2022-12-27T10:43:58.314Z,25.80
2022-12-27T10:44:58.323Z,25.80
2022-12-27T10:45:58.343Z,25.75
2022-12-27T10:46:58.394Z,25.80
2022-12-27T10:47:58.308Z,25.76
2022-12-27T10:49:21.334Z,25.79
2022-12-27T10:49:58.309Z,25.83
2022-12-27T10:50:58.340Z,25.83
2022-12-27T10:51:58.310Z,25.79
2022-12-27T10:52:58.314Z,25.83
2022-12-27T10:53:58.306Z,25.79
2022-12-27T10:54:58.319Z,25.82
2022-12-27T10:55:58.307Z,25.83
2022-12-27T10:56:58.312Z,25.82
2022-12-27T10:57:58.306Z,25.77
2022-12-27T10:58:59.243Z,25.80
2022-12-27T10:59:58.301Z,25.77
2022-12-27T11:00:58.466Z,25.77
2022-12-27T11:01:58.474Z,25.85
2022-12-27T11:02:58.338Z,25.82
2022-12-27T11:03:58.298Z,25.80
2022-12-27T11:04:58.303Z,25.80
2022-12-27T11:05:58.300Z,25.79
2022-12-27T11:06:58.303Z,25.79
2022-12-27T11:07:58.306Z,25.80
2022-12-27T11:08:58.300Z,25.79
2022-12-27T11:09:58.295Z,25.77
2022-12-27T11:10:58.299Z,25.80
2022-12-27T11:11:58.288Z,25.79
2022-12-27T11:12:58.293Z,25.80
2022-12-27T11:13:58.290Z,25.79
2022-12-27T11:14:58.294Z,25.83
2022-12-27T11:15:59.129Z,25.76
2022-12-27T11:16:58.293Z,25.82
2022-12-27T11:17:58.314Z,25.85
2022-12-27T11:18:58.290Z,25.85
2022-12-27T11:19:58.284Z,25.83
2022-12-27T11:20:58.286Z,25.79
2022-12-27T11:21:58.288Z,25.80
2022-12-27T11:22:58.299Z,25.79
2022-12-27T11:23:58.277Z,25.90
2022-12-27T11:24:58.289Z,25.80
2022-12-27T11:25:58.275Z,25.79
2022-12-27T11:26:58.286Z,25.82
2022-12-27T11:27:58.301Z,25.82
2022-12-27T11:28:58.293Z,25.79
2022-12-27T11:29:58.273Z,25.77
2022-12-27T11:30:58.479Z,25.80
2022-12-27T11:31:58.314Z,25.82
2022-12-27T11:32:58.303Z,25.79
2022-12-27T11:33:58.296Z,25.82
2022-12-27T11:34:58.272Z,25.83
2022-12-27T11:35:58.272Z,25.79
2022-12-27T11:36:58.272Z,25.79
2022-12-27T11:37:58.265Z,25.82
2022-12-27T11:38:58.292Z,25.82
2022-12-27T11:39:58.264Z,25.77
2022-12-27T11:40:58.277Z,25.83
2022-12-27T11:41:58.269Z,25.77
2022-12-27T11:42:58.270Z,25.79
2022-12-27T11:43:58.260Z,25.83
2022-12-27T11:44:58.269Z,25.77
2022-12-27T11:45:58.273Z,25.82
2022-12-27T11:46:59.515Z,25.79
2022-12-27T11:47:58.259Z,25.77
2022-12-27T11:48:58.265Z,25.83
2022-12-27T11:49:58.281Z,25.83
2022-12-27T11:50:58.261Z,25.73
2022-12-27T11:51:58.253Z,25.88
2022-12-27T11:52:58.260Z,25.77
2022-12-27T11:53:58.261Z,25.79
2022-12-27T11:54:58.258Z,25.82
2022-12-27T11:55:58.260Z,25.83
2022-12-27T11:56:58.256Z,25.87
2022-12-27T11:57:58.246Z,25.83
2022-12-27T11:58:58.265Z,25.76
2022-12-27T11:59:58.248Z,25.87
2022-12-27T12:01:03.621Z,25.82
2022-12-27T12:01:58.361Z,25.82
2022-12-27T12:02:58.327Z,25.76
2022-12-27T12:03:58.243Z,25.79
2022-12-27T12:04:58.246Z,25.85
2022-12-27T12:05:58.263Z,25.77
2022-12-27T12:06:58.244Z,25.75
2022-12-27T12:07:58.262Z,25.79
2022-12-27T12:08:58.248Z,25.92
2022-12-27T12:09:58.234Z,25.79
2022-12-27T12:10:58.239Z,25.76
2022-12-27T12:11:58.233Z,25.88
2022-12-27T12:12:58.239Z,25.79
2022-12-27T12:13:58.232Z,25.83
2022-12-27T12:14:58.236Z,25.82
2022-12-27T12:15:58.236Z,25.87
2022-12-27T12:16:58.296Z,25.77
2022-12-27T12:17:58.240Z,25.80
2022-12-27T12:18:58.236Z,25.77
2022-12-27T12:19:58.231Z,25.79
2022-12-27T12:20:58.241Z,25.91
2022-12-27T12:21:58.256Z,25.82
2022-12-27T12:22:58.268Z,25.79
2022-12-27T12:23:58.228Z,25.83
2022-12-27T12:24:58.237Z,25.77
2022-12-27T12:25:58.246Z,25.82
2022-12-27T12:26:58.227Z,25.90
2022-12-27T12:27:58.223Z,25.85
2022-12-27T12:28:59.811Z,25.82
2022-12-27T12:29:58.216Z,25.83
2022-12-27T12:30:58.226Z,25.77
2022-12-27T12:31:58.292Z,25.76
2022-12-27T12:32:58.242Z,25.82
2022-12-27T12:33:58.217Z,25.87
2022-12-27T12:34:58.228Z,25.88
2022-12-27T12:35:58.214Z,25.88
2022-12-27T12:36:58.224Z,25.87
2022-12-27T12:37:58.245Z,25.88
2022-12-27T12:38:58.215Z,25.88
2022-12-27T12:39:58.210Z,25.88
2022-12-27T12:40:58.214Z,25.85
2022-12-27T12:41:58.207Z,25.87
2022-12-27T12:42:58.211Z,25.95
2022-12-27T12:43:58.215Z,25.94
2022-12-27T12:44:58.212Z,25.92
2022-12-27T12:45:58.250Z,25.94
2022-12-27T12:46:58.206Z,25.94
2022-12-27T12:47:58.206Z,25.88
2022-12-27T12:48:58.204Z,25.98
2022-12-27T12:49:58.216Z,25.99
2022-12-27T12:50:58.214Z,26.05
2022-12-27T12:51:58.204Z,25.92
2022-12-27T12:52:58.205Z,25.99
2022-12-27T12:53:58.217Z,25.99